Time,TemperatureF,DewpointF,PressureIn,WindDirection,WindDirectionDegrees,WindSpeedMPH,WindSpeedGustMPH,Humidity,HourlyPrecipIn,Conditions,Clouds,dailyrainin,SolarRadiationWatts/m^2,SoftwareType,DateUTC
2013-08-13 03:43:00,57.0,42.0,-100.00,NNE,12,0.0,5.0,58,-99.99,,,0.00,0.000000,,2013-08-13 10:43:00,
2013-08-13 03:52:00,57.0,42.0,-100.00,NNE,12,0.0,5.0,58,-99.99,,,0.00,0.000000,,2013-08-13 10:52:00,
2013-08-13 04:02:00,57.0,42.0,-100.00,NNE,12,0.0,5.0,58,-99.99,,,0.00,0.000000,,2013-08-13 11:02:00,
2013-08-13 04:11:00,57.0,42.0,-100.00,NNE,12,0.0,5.0,58,-99.99,,,0.00,0.000000,,2013-08-13 11:11:00,
2013-08-13 04:42:00,55.0,45.0,-100.00,NNW,333,0.0,2.0,70,0.00,,,0.00,0.000000,,2013-08-13 11:42:00,
2013-08-13 04:52:00,55.0,45.0,-100.00,NNW,333,0.0,2.0,70,0.00,,,0.00,0.000000,,2013-08-13 11:52:00,
2013-08-13 05:01:00,55.0,45.0,-100.00,NNW,333,0.0,2.0,70,0.00,,,0.00,0.000000,,2013-08-13 12:01:00,
2013-08-13 05:12:00,55.0,45.0,-100.00,NNW,333,0.0,2.0,70,0.00,,,0.00,0.000000,,2013-08-13 12:12:00,
2013-08-13 05:42:00,55.0,45.0,-100.00,NW,314,0.0,3.0,69,0.00,,,0.00,0.000000,,2013-08-13 12:42:00,
2013-08-13 05:52:00,55.0,45.0,-100.00,NW,314,0.0,3.0,69,0.00,,,0.00,0.000000,,2013-08-13 12:52:00,
2013-08-13 06:01:00,55.0,45.0,-100.00,NW,314,0.0,3.0,69,0.00,,,0.00,0.000000,,2013-08-13 13:01:00,
2013-08-13 06:11:00,55.0,45.0,-100.00,NW,314,0.0,3.0,69,0.00,,,0.00,0.000000,,2013-08-13 13:11:00,
2013-08-13 06:42:00,56.0,47.0,-100.00,NNE,13,0.0,2.0,73,0.00,,,0.00,1.000000,,2013-08-13 13:42:00,
2013-08-13 06:52:00,56.0,47.0,-100.00,NNE,13,0.0,2.0,73,0.00,,,0.00,1.000000,,2013-08-13 13:52:00,
2013-08-13 07:02:00,56.0,47.0,-100.00,NNE,13,0.0,2.0,73,0.00,,,0.00,1.000000,,2013-08-13 14:02:00,
2013-08-13 07:11:00,56.0,47.0,-100.00,NNE,13,0.0,2.0,73,0.00,,,0.00,1.000000,,2013-08-13 14:11:00,
2013-08-13 07:42:00,57.0,45.0,-100.00,NW,312,0.0,2.0,64,0.00,,,0.00,20.000000,,2013-08-13 14:42:00,
2013-08-13 07:52:00,57.0,45.0,-100.00,NW,312,0.0,2.0,64,0.00,,,0.00,20.000000,,2013-08-13 14:52:00,
2013-08-13 08:02:00,57.0,45.0,-100.00,NW,312,0.0,2.0,64,0.00,,,0.00,20.000000,,2013-08-13 15:02:00,
2013-08-13 08:11:00,57.0,45.0,-100.00,NW,312,0.0,2.0,64,0.00,,,0.00,20.000000,,2013-08-13 15:11:00,
2013-08-13 08:44:00,61.0,49.0,-100.00,South,186,0.0,3.0,65,0.00,,,0.00,127.000000,,2013-08-13 15:44:00,
2013-08-13 08:54:00,61.0,49.0,-100.00,South,186,0.0,3.0,65,0.00,,,0.00,127.000000,,2013-08-13 15:54:00,
2013-08-13 09:03:00,61.0,49.0,-100.00,South,186,0.0,3.0,65,0.00,,,0.00,127.000000,,2013-08-13 16:03:00,
2013-08-13 09:13:00,61.0,49.0,-100.00,South,186,0.0,3.0,65,0.00,,,0.00,127.000000,,2013-08-13 16:13:00,
2013-08-13 09:16:00,69.0,48.0,-100.00,SSE,162,1.0,3.0,48,0.00,,,0.00,455.000000,,2013-08-13 16:16:00,
2013-08-13 09:45:00,69.0,48.0,-100.00,SSE,162,1.0,3.0,48,0.00,,,0.00,455.000000,,2013-08-13 16:45:00,
2013-08-13 09:54:00,69.0,48.0,-100.00,SSE,162,1.0,3.0,48,0.00,,,0.00,455.000000,,2013-08-13 16:54:00,
2013-08-13 10:05:00,69.0,48.0,-100.00,SSE,162,1.0,3.0,48,0.00,,,0.00,455.000000,,2013-08-13 17:05:00,
2013-08-13 10:46:00,-999.0,-99.9,-100.00,ESE,121,2.0,6.0,-999,0.00,,,0.00,624.000000,,2013-08-13 17:46:00,
2013-08-13 10:56:00,74.0,46.0,-100.00,ESE,121,2.0,6.0,37,0.00,,,0.00,624.000000,,2013-08-13 17:56:00,
2013-08-13 11:05:00,74.0,46.0,-100.00,ESE,121,2.0,6.0,37,0.00,,,0.00,624.000000,,2013-08-13 18:05:00,
2013-08-13 11:15:00,74.0,46.0,-100.00,ESE,121,2.0,6.0,37,0.00,,,0.00,624.000000,,2013-08-13 18:15:00,
2013-08-13 11:44:00,78.0,49.0,-100.00,ENE,76,2.0,8.0,36,0.00,,,0.00,761.000000,,2013-08-13 18:44:00,
2013-08-13 11:56:00,78.0,49.0,-100.00,ENE,76,2.0,8.0,36,0.00,,,0.00,761.000000,,2013-08-13 18:56:00,
2013-08-13 12:04:00,78.0,49.0,-100.00,ENE,76,2.0,8.0,36,0.00,,,0.00,761.000000,,2013-08-13 19:04:00,
2013-08-13 12:14:00,78.0,49.0,-100.00,ENE,76,2.0,8.0,36,0.00,,,0.00,761.000000,,2013-08-13 19:14:00,
2013-08-13 12:44:00,80.0,47.0,-100.00,East,87,3.0,8.0,31,0.00,,,0.00,854.000000,,2013-08-13 19:44:00,
2013-08-13 12:55:00,80.0,47.0,-100.00,East,87,3.0,8.0,31,0.00,,,0.00,854.000000,,2013-08-13 19:55:00,
2013-08-13 13:04:00,80.0,47.0,-100.00,East,87,3.0,8.0,31,0.00,,,0.00,854.000000,,2013-08-13 20:04:00,
2013-08-13 13:15:00,80.0,47.0,-100.00,East,87,3.0,8.0,31,0.00,,,0.00,854.000000,,2013-08-13 20:15:00,
2013-08-13 13:45:00,81.0,44.0,-100.00,ENE,76,4.0,10.0,27,0.00,,,0.00,894.000000,,2013-08-13 20:45:00,
2013-08-13 13:53:00,81.0,44.0,-100.00,ENE,76,4.0,10.0,27,0.00,,,0.00,894.000000,,2013-08-13 20:53:00,
2013-08-13 14:01:00,81.0,44.0,-100.00,ENE,76,4.0,10.0,27,0.00,,,0.00,894.000000,,2013-08-13 21:01:00,
2013-08-13 14:11:00,81.0,44.0,-100.00,ENE,76,4.0,10.0,27,0.00,,,0.00,894.000000,,2013-08-13 21:11:00,
2013-08-13 14:46:00,83.0,42.0,-100.00,ENE,67,3.0,9.0,24,0.00,,,0.00,882.000000,,2013-08-13 21:46:00,
2013-08-13 14:54:00,83.0,42.0,-100.00,ENE,67,3.0,9.0,24,0.00,,,0.00,882.000000,,2013-08-13 21:54:00,
2013-08-13 15:03:00,83.0,42.0,-100.00,ENE,67,3.0,9.0,24,0.00,,,0.00,882.000000,,2013-08-13 22:03:00,
2013-08-13 15:13:00,83.0,42.0,-100.00,ENE,67,3.0,9.0,24,0.00,,,0.00,882.000000,,2013-08-13 22:13:00,
2013-08-13 15:50:00,84.0,42.0,-100.00,ENE,66,3.0,9.0,23,0.00,,,0.00,808.000000,,2013-08-13 22:50:00,
2013-08-13 15:57:00,84.0,42.0,-100.00,ENE,66,3.0,9.0,23,0.00,,,0.00,808.000000,,2013-08-13 22:57:00,
2013-08-13 16:03:00,84.0,42.0,-100.00,ENE,66,3.0,9.0,23,0.00,,,0.00,808.000000,,2013-08-13 23:03:00,
2013-08-13 16:13:00,84.0,42.0,-100.00,ENE,66,3.0,9.0,23,0.00,,,0.00,808.000000,,2013-08-13 23:13:00,
2013-08-13 16:47:00,84.0,42.0,-100.00,ENE,76,5.0,11.0,23,0.00,,,-99.99,709.000000,,2013-08-13 23:47:00,
2013-08-13 16:57:00,84.0,42.0,-100.00,ENE,76,5.0,11.0,23,0.00,,,-99.99,709.000000,,2013-08-13 23:57:00,
2013-08-13 17:03:00,84.0,42.0,-100.00,ENE,76,5.0,11.0,23,0.00,,,-99.99,709.000000,,2013-08-14 00:03:00,
2013-08-13 17:11:00,84.0,42.0,-100.00,ENE,76,5.0,11.0,23,0.00,,,-99.99,709.000000,,2013-08-14 00:11:00,
2013-08-13 17:42:00,83.0,45.0,-100.00,NE,50,4.0,11.0,26,0.00,,,0.00,556.000000,,2013-08-14 00:42:00,
2013-08-13 17:52:00,83.0,45.0,-100.00,NE,50,4.0,11.0,26,0.00,,,0.00,556.000000,,2013-08-14 00:52:00,
2013-08-13 18:01:00,83.0,45.0,-100.00,NE,50,4.0,11.0,26,0.00,,,0.00,556.000000,,2013-08-14 01:01:00,
2013-08-13 18:11:00,83.0,45.0,-100.00,NE,50,4.0,11.0,26,0.00,,,0.00,556.000000,,2013-08-14 01:11:00,
2013-08-13 18:42:00,80.0,43.0,-100.00,NE,51,4.0,12.0,27,0.00,,,0.00,372.000000,,2013-08-14 01:42:00,
2013-08-13 18:52:00,80.0,43.0,-100.00,NE,51,4.0,12.0,27,0.00,,,0.00,372.000000,,2013-08-14 01:52:00,
2013-08-13 19:02:00,80.0,43.0,-100.00,NE,51,4.0,12.0,27,0.00,,,0.00,372.000000,,2013-08-14 02:02:00,
2013-08-13 19:11:00,80.0,43.0,-100.00,NE,51,4.0,12.0,27,0.00,,,0.00,372.000000,,2013-08-14 02:11:00,
2013-08-13 19:42:00,79.0,44.0,-100.00,NW,315,1.0,10.0,29,0.00,,,0.00,187.000000,,2013-08-14 02:42:00,
2013-08-13 19:52:00,79.0,44.0,-100.00,NW,315,1.0,10.0,29,0.00,,,0.00,187.000000,,2013-08-14 02:52:00,
2013-08-13 20:01:00,79.0,44.0,-100.00,NW,315,1.0,10.0,29,0.00,,,0.00,187.000000,,2013-08-14 03:01:00,
2013-08-13 20:11:00,79.0,44.0,-100.00,NW,315,1.0,10.0,29,0.00,,,0.00,187.000000,,2013-08-14 03:11:00,
2013-08-13 20:43:00,70.0,47.0,-100.00,West,280,1.0,4.0,44,0.00,,,0.00,19.000000,,2013-08-14 03:43:00,
2013-08-13 20:53:00,70.0,47.0,-100.00,West,280,1.0,4.0,44,0.00,,,0.00,19.000000,,2013-08-14 03:53:00,
2013-08-13 21:03:00,70.0,47.0,-100.00,West,280,1.0,4.0,44,0.00,,,0.00,19.000000,,2013-08-14 04:03:00,
2013-08-13 21:12:00,70.0,47.0,-100.00,West,280,1.0,4.0,44,0.00,,,0.00,19.000000,,2013-08-14 04:12:00,
2013-08-13 21:42:00,70.0,45.0,-100.00,NNE,18,1.0,3.0,41,0.00,,,0.00,0.000000,,2013-08-14 04:42:00,
2013-08-13 21:52:00,70.0,45.0,-100.00,NNE,18,1.0,3.0,41,0.00,,,0.00,0.000000,,2013-08-14 04:52:00,
2013-08-13 22:02:00,70.0,45.0,-100.00,NNE,18,1.0,3.0,41,0.00,,,0.00,0.000000,,2013-08-14 05:02:00,
2013-08-13 22:12:00,70.0,45.0,-100.00,NNE,18,1.0,3.0,41,0.00,,,0.00,0.000000,,2013-08-14 05:12:00,
2013-08-13 22:42:00,69.0,42.0,-100.00,NW,322,1.0,5.0,38,0.00,,,0.00,0.000000,,2013-08-14 05:42:00,
2013-08-13 22:52:00,69.0,42.0,-100.00,NW,322,1.0,5.0,38,0.00,,,0.00,0.000000,,2013-08-14 05:52:00,
2013-08-13 23:01:00,69.0,42.0,-100.00,NW,322,1.0,5.0,38,0.00,,,0.00,0.000000,,2013-08-14 06:01:00,
2013-08-13 23:11:00,69.0,42.0,-100.00,NW,322,1.0,5.0,38,0.00,,,0.00,0.000000,,2013-08-14 06:11:00,
2013-08-13 23:42:00,69.0,41.0,-100.00,NNW,342,0.0,4.0,36,0.00,,,0.00,0.000000,,2013-08-14 06:42:00,
2013-08-13 23:52:00,69.0,41.0,-100.00,NNW,342,0.0,4.0,36,0.00,,,0.00,0.000000,,2013-08-14 06:52:00,